createdAt,value
2022-10-15T00:01:16.466Z,20.80
2022-10-15T00:03:48.068Z,20.80
2022-10-15T00:06:23.087Z,20.90
2022-10-15T00:08:53.050Z,20.90
2022-10-15T00:11:27.672Z,20.90
2022-10-15T00:14:00.001Z,20.80
2022-10-15T00:16:31.790Z,20.80
2022-10-15T00:19:02.465Z,20.90
2022-10-15T00:21:32.664Z,20.80
2022-10-15T00:24:01.877Z,20.80
2022-10-15T00:26:32.737Z,20.90
2022-10-15T00:29:06.056Z,20.80
2022-10-15T00:31:36.342Z,20.90
2022-10-15T00:34:05.536Z,20.90
2022-10-15T00:36:38.358Z,20.80
2022-10-15T00:39:09.654Z,20.80
2022-10-15T00:41:44.653Z,20.80
2022-10-15T00:44:45.785Z,20.90
2022-10-15T00:47:39.980Z,20.80
2022-10-15T00:50:27.843Z,20.80
2022-10-15T00:53:11.752Z,20.80
2022-10-15T00:55:44.869Z,20.90
2022-10-15T00:58:18.347Z,20.90
2022-10-15T01:00:48.586Z,20.90
2022-10-15T01:03:18.506Z,21.00
2022-10-15T01:05:53.075Z,21.00
2022-10-15T01:08:22.949Z,21.00
2022-10-15T01:11:27.457Z,21.10
2022-10-15T01:14:10.237Z,21.10
2022-10-15T01:17:17.672Z,21.20
2022-10-15T01:20:07.184Z,21.30
2022-10-15T01:23:07.978Z,21.30
2022-10-15T01:26:07.966Z,21.40
2022-10-15T01:29:15.177Z,21.40
2022-10-15T01:31:57.760Z,21.40
2022-10-15T01:34:51.009Z,21.50
2022-10-15T01:37:38.594Z,21.60
2022-10-15T01:40:17.855Z,21.70
2022-10-15T01:43:01.046Z,21.70
2022-10-15T01:45:55.126Z,21.80
2022-10-15T01:48:28.511Z,21.90
2022-10-15T01:51:02.997Z,22.00
2022-10-15T01:53:35.869Z,22.00
2022-10-15T01:56:12.085Z,22.20
2022-10-15T01:58:45.704Z,22.30
2022-10-15T02:01:16.614Z,22.30
2022-10-15T02:03:52.462Z,22.40
2022-10-15T02:06:45.324Z,22.50
2022-10-15T02:09:31.212Z,22.60
2022-10-15T02:12:30.318Z,22.70
2022-10-15T02:15:19.571Z,22.70
2022-10-15T02:18:07.226Z,22.60
2022-10-15T02:20:49.877Z,22.40
2022-10-15T02:23:24.618Z,22.20
2022-10-15T02:25:56.675Z,22.20
2022-10-15T02:28:30.229Z,22.30
2022-10-15T02:31:01.875Z,22.50
2022-10-15T02:33:34.389Z,22.50
2022-10-15T02:36:05.140Z,22.60
2022-10-15T02:38:37.477Z,22.40
2022-10-15T02:41:09.158Z,22.40
2022-10-15T02:43:40.313Z,22.50
2022-10-15T02:46:13.536Z,22.60
2022-10-15T02:48:44.061Z,22.60
2022-10-15T02:51:13.996Z,22.70
2022-10-15T02:53:44.004Z,22.90
2022-10-15T02:56:14.322Z,22.90
2022-10-15T02:58:43.862Z,22.80
2022-10-15T03:01:13.687Z,22.90
2022-10-15T03:03:43.855Z,22.80
2022-10-15T03:06:13.095Z,22.80
2022-10-15T03:08:44.357Z,23.00
2022-10-15T03:11:14.751Z,23.30
2022-10-15T03:13:44.681Z,23.50
2022-10-15T03:16:15.226Z,23.60
2022-10-15T03:18:45.137Z,23.80
2022-10-15T03:21:15.054Z,23.80
2022-10-15T03:23:45.063Z,23.80
2022-10-15T03:26:15.077Z,23.80
2022-10-15T03:28:44.430Z,23.90
2022-10-15T03:31:16.046Z,24.20
2022-10-15T03:33:45.936Z,24.20
2022-10-15T03:36:16.358Z,24.20
2022-10-15T03:38:46.353Z,24.10
2022-10-15T03:41:15.642Z,24.00
2022-10-15T03:43:45.562Z,23.90
2022-10-15T03:46:15.029Z,23.90
2022-10-15T03:48:44.913Z,23.90
2022-10-15T03:51:17.008Z,23.90
2022-10-15T03:53:52.024Z,24.00
2022-10-15T03:56:22.131Z,24.10
2022-10-15T03:58:52.915Z,24.10
2022-10-15T04:01:23.269Z,24.20
2022-10-15T04:03:55.575Z,24.20
2022-10-15T04:06:25.473Z,24.30
2022-10-15T04:08:54.752Z,24.40
2022-10-15T04:11:24.806Z,24.60
2022-10-15T04:13:54.707Z,24.70
2022-10-15T04:16:23.926Z,24.70
2022-10-15T04:18:53.824Z,24.70
2022-10-15T04:21:23.267Z,24.70
2022-10-15T04:23:53.184Z,24.60
2022-10-15T04:26:22.513Z,24.50
2022-10-15T04:28:52.431Z,24.60
2022-10-15T04:31:22.156Z,24.60
2022-10-15T04:33:52.735Z,24.70
2022-10-15T04:36:22.695Z,24.80
2022-10-15T04:38:51.915Z,24.90
2022-10-15T04:41:21.864Z,25.10
2022-10-15T04:43:51.047Z,25.20
2022-10-15T04:46:24.056Z,25.30
2022-10-15T04:48:59.189Z,25.20
2022-10-15T04:51:31.157Z,25.20
2022-10-15T04:54:03.359Z,25.20
2022-10-15T04:56:33.332Z,25.20
2022-10-15T04:59:03.081Z,25.10
2022-10-15T05:01:33.536Z,25.20
2022-10-15T05:04:03.656Z,25.30
2022-10-15T05:06:36.482Z,25.30
2022-10-15T05:09:06.479Z,25.50
2022-10-15T05:11:39.831Z,25.50
2022-10-15T05:14:12.189Z,25.50
2022-10-15T05:16:42.072Z,25.50
2022-10-15T05:19:13.997Z,25.50
2022-10-15T05:21:43.923Z,25.50
2022-10-15T05:24:14.425Z,25.50
2022-10-15T05:26:44.290Z,25.50
2022-10-15T05:29:13.641Z,25.40
2022-10-15T05:31:44.479Z,25.50
2022-10-15T05:34:15.527Z,25.40
2022-10-15T05:36:45.782Z,25.30
2022-10-15T05:39:16.809Z,25.20
2022-10-15T05:41:47.889Z,25.20
2022-10-15T05:44:18.479Z,25.40
2022-10-15T05:46:48.822Z,25.60
2022-10-15T05:49:21.134Z,25.70
2022-10-15T05:51:51.958Z,25.90
2022-10-15T05:54:22.380Z,26.00
2022-10-15T05:56:52.823Z,26.10
2022-10-15T05:59:23.198Z,26.20
2022-10-15T06:01:53.692Z,26.20
2022-10-15T06:04:24.012Z,26.30
2022-10-15T06:06:55.331Z,26.40
2022-10-15T06:09:25.667Z,26.40
2022-10-15T06:11:56.060Z,26.40
2022-10-15T06:14:26.821Z,26.60
2022-10-15T06:16:57.247Z,26.70
2022-10-15T06:19:27.574Z,26.70
2022-10-15T06:21:57.880Z,26.80
2022-10-15T06:24:28.219Z,26.70
2022-10-15T06:26:58.615Z,26.80
2022-10-15T06:29:28.968Z,26.90
2022-10-15T06:31:59.378Z,26.90
2022-10-15T06:34:29.738Z,27.10
2022-10-15T06:37:00.191Z,27.20
2022-10-15T06:39:30.517Z,27.20
2022-10-15T06:42:00.790Z,27.30
2022-10-15T06:44:31.166Z,27.30
2022-10-15T06:47:01.569Z,27.20
2022-10-15T06:49:31.905Z,27.20
2022-10-15T06:52:03.758Z,27.30
2022-10-15T06:54:34.740Z,27.30
2022-10-15T06:57:06.477Z,27.40
2022-10-15T06:59:40.427Z,27.50
2022-10-15T07:02:13.453Z,27.40
2022-10-15T07:04:43.933Z,27.40
2022-10-15T07:07:14.375Z,27.50
2022-10-15T07:09:46.427Z,27.60
2022-10-15T07:12:18.463Z,27.60
2022-10-15T07:14:48.827Z,27.60
2022-10-15T07:17:19.970Z,27.60
2022-10-15T07:19:50.552Z,27.70
2022-10-15T07:22:22.199Z,27.60
2022-10-15T07:24:52.726Z,27.70
2022-10-15T07:27:23.198Z,27.60
2022-10-15T07:29:53.463Z,27.60
2022-10-15T07:32:24.159Z,27.50
2022-10-15T07:34:54.828Z,27.60
2022-10-15T07:37:25.337Z,27.70
2022-10-15T07:39:55.757Z,27.70
2022-10-15T07:42:26.276Z,27.70
2022-10-15T07:44:56.578Z,27.70
2022-10-15T07:47:27.026Z,27.60
2022-10-15T07:49:57.486Z,27.60
2022-10-15T07:52:28.006Z,27.40
2022-10-15T07:54:58.314Z,27.20
2022-10-15T07:57:28.661Z,27.00
2022-10-15T07:59:58.972Z,26.80
2022-10-15T08:02:29.413Z,26.70
2022-10-15T08:04:59.667Z,26.70
2022-10-15T08:07:30.116Z,26.80
2022-10-15T08:10:00.333Z,27.00
2022-10-15T08:12:30.648Z,27.10
2022-10-15T08:15:00.936Z,27.20
2022-10-15T08:17:31.223Z,27.20
2022-10-15T08:20:02.348Z,27.30
2022-10-15T08:22:32.609Z,27.40
2022-10-15T08:25:02.927Z,27.40
2022-10-15T08:27:33.301Z,27.50
2022-10-15T08:30:04.175Z,27.60
2022-10-15T08:32:34.379Z,27.60
2022-10-15T08:35:04.643Z,27.60
2022-10-15T08:37:34.972Z,27.60
2022-10-15T08:40:06.469Z,27.60
2022-10-15T08:42:47.315Z,27.50
2022-10-15T08:45:26.622Z,27.30
2022-10-15T08:48:06.040Z,27.10
2022-10-15T08:51:05.721Z,27.10
2022-10-15T08:53:51.084Z,27.10
2022-10-15T08:56:26.965Z,27.00
2022-10-15T08:59:16.805Z,26.90
2022-10-15T09:02:01.237Z,26.80
2022-10-15T09:04:44.182Z,26.70
2022-10-15T09:07:27.423Z,26.60
2022-10-15T09:10:20.109Z,26.60
2022-10-15T09:13:24.230Z,26.70
2022-10-15T09:15:59.312Z,26.60
2022-10-15T09:18:34.443Z,26.60
2022-10-15T09:21:07.042Z,26.60
2022-10-15T09:23:38.349Z,26.60
2022-10-15T09:26:29.953Z,26.50
2022-10-15T09:29:20.204Z,26.40
2022-10-15T09:32:17.708Z,26.50
2022-10-15T09:35:03.695Z,26.50
2022-10-15T09:37:48.105Z,26.30
2022-10-15T09:40:47.937Z,26.40
2022-10-15T09:43:20.995Z,26.40
2022-10-15T09:45:50.951Z,26.40
2022-10-15T09:48:22.034Z,26.40
2022-10-15T09:51:06.005Z,26.40
2022-10-15T09:54:03.755Z,26.40
2022-10-15T09:56:49.250Z,26.40
2022-10-15T09:59:22.589Z,26.30
2022-10-15T10:02:21.166Z,26.30
2022-10-15T10:04:51.098Z,26.30
2022-10-15T10:07:30.392Z,26.20
2022-10-15T10:10:05.510Z,26.10
2022-10-15T10:12:38.206Z,26.00
2022-10-15T10:15:28.224Z,26.00
2022-10-15T10:18:00.827Z,26.00
2022-10-15T10:20:34.135Z,26.10
2022-10-15T10:23:22.640Z,26.00
2022-10-15T10:25:52.753Z,26.00
2022-10-15T10:28:44.178Z,25.90
2022-10-15T10:31:15.133Z,25.90
2022-10-15T10:33:49.810Z,25.70
2022-10-15T10:36:30.374Z,25.60
2022-10-15T10:39:28.291Z,25.70
2022-10-15T10:42:28.504Z,25.60
2022-10-15T10:44:58.382Z,25.60
2022-10-15T10:47:28.743Z,25.60
2022-10-15T10:50:00.204Z,25.60
2022-10-15T10:52:35.390Z,25.60
2022-10-15T10:55:23.212Z,25.50
2022-10-15T10:57:58.667Z,25.40
2022-10-15T11:00:44.837Z,25.30
2022-10-15T11:03:37.506Z,25.10
2022-10-15T11:06:43.628Z,25.10
2022-10-15T11:09:33.375Z,25.10
2022-10-15T11:12:33.787Z,25.10
2022-10-15T11:15:22.193Z,25.00
2022-10-15T11:18:24.054Z,25.00
2022-10-15T11:21:20.205Z,24.90
2022-10-15T11:24:15.792Z,24.80
2022-10-15T11:27:10.835Z,24.70
2022-10-15T11:30:05.242Z,24.60
2022-10-15T11:33:06.865Z,24.60
2022-10-15T11:35:53.963Z,24.50
2022-10-15T11:38:57.116Z,24.40
2022-10-15T11:41:52.602Z,24.30
2022-10-15T11:44:45.568Z,24.20
2022-10-15T11:47:41.471Z,24.10
2022-10-15T11:50:35.167Z,24.00
2022-10-15T11:53:28.970Z,24.00
2022-10-15T11:56:08.975Z,24.00
2022-10-15T11:58:41.396Z,24.10
2022-10-15T12:01:24.134Z,24.00
2022-10-15T12:04:02.059Z,23.90
2022-10-15T12:06:38.462Z,23.90
2022-10-15T12:09:14.783Z,23.90
2022-10-15T12:12:00.771Z,23.90
2022-10-15T12:14:57.587Z,23.80
2022-10-15T12:17:56.544Z,23.80
2022-10-15T12:20:28.994Z,23.80
2022-10-15T12:23:02.030Z,23.60
2022-10-15T12:25:48.225Z,23.60
2022-10-15T12:28:29.606Z,23.60
2022-10-15T12:31:06.555Z,23.50
2022-10-15T12:33:48.603Z,23.50
2022-10-15T12:36:31.976Z,23.60
2022-10-15T12:39:17.576Z,23.50
2022-10-15T12:41:58.184Z,23.50
2022-10-15T12:44:34.035Z,23.50
2022-10-15T12:47:05.363Z,23.50
2022-10-15T12:49:49.011Z,23.40
2022-10-15T12:52:49.757Z,23.40
2022-10-15T12:55:37.373Z,23.40
2022-10-15T12:58:35.945Z,23.30
2022-10-15T13:01:36.483Z,23.30
2022-10-15T13:04:06.517Z,23.30
2022-10-15T13:06:36.841Z,23.30
2022-10-15T13:09:31.094Z,23.30
2022-10-15T13:12:02.746Z,23.20
2022-10-15T13:14:40.033Z,23.20
2022-10-15T13:17:20.649Z,23.10
2022-10-15T13:19:59.974Z,23.00
2022-10-15T13:22:32.665Z,23.10
2022-10-15T13:25:03.648Z,23.00
2022-10-15T13:27:39.423Z,23.00
2022-10-15T13:30:19.019Z,23.00
2022-10-15T13:32:55.439Z,23.00
2022-10-15T13:35:34.325Z,23.00
2022-10-15T13:38:07.046Z,23.00
2022-10-15T13:40:37.154Z,23.00
2022-10-15T13:43:08.397Z,23.00
2022-10-15T13:45:39.355Z,23.00
2022-10-15T13:48:15.400Z,23.10
2022-10-15T13:50:45.574Z,23.00
2022-10-15T13:53:33.432Z,23.00
2022-10-15T13:56:07.201Z,23.00
2022-10-15T13:58:38.162Z,23.00
2022-10-15T14:01:25.540Z,22.90
2022-10-15T14:03:58.457Z,22.90
2022-10-15T14:06:34.262Z,23.00
2022-10-15T14:09:25.872Z,23.00
2022-10-15T14:12:00.545Z,23.00
2022-10-15T14:14:37.858Z,23.00
2022-10-15T14:17:15.200Z,22.90
2022-10-15T14:20:08.254Z,22.90
2022-10-15T14:22:44.160Z,22.90
2022-10-15T14:25:22.086Z,22.90
2022-10-15T14:27:53.184Z,22.90
2022-10-15T14:30:35.174Z,22.90
2022-10-15T14:33:05.477Z,22.90
2022-10-15T14:35:37.938Z,22.90
2022-10-15T14:38:19.433Z,22.80
2022-10-15T14:41:20.958Z,22.90
2022-10-15T14:44:03.889Z,22.90
2022-10-15T14:46:44.148Z,22.90
2022-10-15T14:49:26.027Z,22.90
2022-10-15T14:52:00.555Z,22.90
2022-10-15T14:54:37.444Z,22.90
2022-10-15T14:57:15.470Z,22.90
2022-10-15T14:59:45.613Z,22.90
2022-10-15T15:02:18.806Z,22.90
2022-10-15T15:05:08.740Z,22.80
2022-10-15T15:07:38.754Z,22.80
2022-10-15T15:10:11.158Z,22.70
2022-10-15T15:12:45.136Z,22.70
2022-10-15T15:15:17.808Z,22.70
2022-10-15T15:17:47.954Z,22.70
2022-10-15T15:20:22.021Z,22.70
2022-10-15T15:22:54.860Z,22.70
2022-10-15T15:25:31.370Z,22.70
2022-10-15T15:28:02.005Z,22.70
2022-10-15T15:30:33.693Z,22.60
2022-10-15T15:33:03.769Z,22.60
2022-10-15T15:35:53.540Z,22.60
2022-10-15T15:38:25.985Z,22.60
2022-10-15T15:40:55.981Z,22.60
2022-10-15T15:43:25.891Z,22.50
2022-10-15T15:45:55.802Z,22.50
2022-10-15T15:48:25.707Z,22.50
2022-10-15T15:50:55.579Z,22.30
2022-10-15T15:53:25.553Z,22.30
2022-10-15T15:55:55.515Z,22.30
2022-10-15T15:58:25.373Z,22.30
2022-10-15T16:00:55.227Z,22.30
2022-10-15T16:03:25.489Z,22.20
2022-10-15T16:05:55.835Z,22.20
2022-10-15T16:08:25.856Z,22.20
2022-10-15T16:10:55.717Z,22.20
2022-10-15T16:13:25.548Z,22.20
2022-10-15T16:15:55.580Z,22.20
2022-10-15T16:18:25.561Z,22.10
2022-10-15T16:20:56.104Z,22.10
2022-10-15T16:23:26.115Z,22.10
2022-10-15T16:25:58.844Z,22.10
2022-10-15T16:28:28.909Z,22.00
2022-10-15T16:31:14.885Z,22.00
2022-10-15T16:33:44.920Z,22.10
2022-10-15T16:36:15.159Z,22.10
2022-10-15T16:38:47.388Z,22.10
2022-10-15T16:41:20.833Z,22.00
2022-10-15T16:43:51.677Z,22.00
2022-10-15T16:46:22.467Z,22.10
2022-10-15T16:48:57.086Z,22.10
2022-10-15T16:51:27.942Z,22.10
2022-10-15T16:54:00.110Z,22.10
2022-10-15T16:56:32.113Z,22.20
2022-10-15T16:59:02.338Z,22.10
2022-10-15T17:01:32.544Z,22.10
2022-10-15T17:04:03.132Z,22.00
2022-10-15T17:06:34.716Z,22.00
2022-10-15T17:09:06.109Z,22.00
2022-10-15T17:11:39.030Z,21.90
2022-10-15T17:14:12.051Z,21.90
2022-10-15T17:16:46.443Z,21.90
2022-10-15T17:19:18.754Z,21.80
2022-10-15T17:21:49.338Z,21.80
2022-10-15T17:24:21.253Z,21.80
2022-10-15T17:26:51.619Z,21.90
2022-10-15T17:29:27.776Z,21.90
2022-10-15T17:32:00.886Z,21.90
2022-10-15T17:34:30.806Z,21.90
2022-10-15T17:37:01.451Z,21.80
2022-10-15T17:39:31.608Z,21.80
2022-10-15T17:42:01.055Z,21.80
2022-10-15T17:44:31.369Z,21.80
2022-10-15T17:47:01.159Z,21.80
2022-10-15T17:49:31.232Z,21.80
2022-10-15T17:52:00.922Z,21.70
2022-10-15T17:54:30.711Z,21.70
2022-10-15T17:57:00.504Z,21.60
2022-10-15T17:59:30.668Z,21.60
2022-10-15T18:02:01.989Z,21.60
2022-10-15T18:04:32.405Z,21.70
2022-10-15T18:07:02.240Z,21.60
2022-10-15T18:09:32.287Z,21.60
2022-10-15T18:12:03.531Z,21.60
2022-10-15T18:14:33.579Z,21.60
2022-10-15T18:17:03.733Z,21.70
2022-10-15T18:19:34.065Z,21.70
2022-10-15T18:22:03.768Z,21.70
2022-10-15T18:24:35.118Z,21.80
2022-10-15T18:27:06.290Z,21.80
2022-10-15T18:29:38.176Z,21.80
2022-10-15T18:32:08.567Z,21.80
2022-10-15T18:34:38.508Z,21.80
2022-10-15T18:37:09.162Z,21.90
2022-10-15T18:39:39.374Z,21.80
2022-10-15T18:42:09.314Z,21.80
2022-10-15T18:44:40.661Z,21.90
2022-10-15T18:47:10.661Z,21.90
2022-10-15T18:49:41.247Z,21.90
2022-10-15T18:52:21.607Z,21.90
2022-10-15T18:55:03.248Z,21.80
2022-10-15T18:57:33.704Z,21.80
2022-10-15T19:00:04.357Z,21.70
2022-10-15T19:02:34.302Z,21.70
2022-10-15T19:05:04.189Z,21.70
2022-10-15T19:07:34.244Z,21.70
2022-10-15T19:10:04.308Z,21.70
2022-10-15T19:12:34.185Z,21.70
2022-10-15T19:15:04.210Z,21.60
2022-10-15T19:17:34.082Z,21.60
2022-10-15T19:20:03.953Z,21.50
2022-10-15T19:22:35.125Z,21.50
2022-10-15T19:25:04.973Z,21.60
2022-10-15T19:27:35.515Z,21.60
2022-10-15T19:30:05.724Z,21.60
2022-10-15T19:32:34.955Z,21.60
2022-10-15T19:35:05.322Z,21.60
2022-10-15T19:37:36.464Z,21.60
2022-10-15T19:40:06.874Z,21.60
2022-10-15T19:42:37.438Z,21.60
2022-10-15T19:45:07.749Z,21.70
2022-10-15T19:47:37.752Z,21.70
2022-10-15T19:50:08.772Z,21.70
2022-10-15T19:52:38.677Z,21.70
2022-10-15T19:55:09.082Z,21.70
2022-10-15T19:57:38.938Z,21.70
2022-10-15T20:00:09.543Z,21.70
2022-10-15T20:02:39.420Z,21.70
2022-10-15T20:05:10.764Z,21.70
2022-10-15T20:07:40.785Z,21.70
2022-10-15T20:10:11.413Z,21.70
2022-10-15T20:12:41.786Z,21.70
2022-10-15T20:15:12.156Z,21.60
2022-10-15T20:17:42.026Z,21.60
2022-10-15T20:20:12.064Z,21.60
2022-10-15T20:22:42.069Z,21.60
2022-10-15T20:25:13.562Z,21.60
2022-10-15T20:27:43.419Z,21.60
2022-10-15T20:30:13.832Z,21.60
2022-10-15T20:32:45.166Z,21.60
2022-10-15T20:35:15.816Z,21.60
2022-10-15T20:37:45.681Z,21.60
2022-10-15T20:40:15.861Z,21.50
2022-10-15T20:42:45.117Z,21.60
2022-10-15T20:45:16.272Z,21.60
2022-10-15T20:47:50.818Z,21.60
2022-10-15T20:50:27.436Z,21.60
2022-10-15T20:53:00.143Z,21.60
2022-10-15T20:55:30.445Z,21.50
2022-10-15T20:58:00.471Z,21.50
2022-10-15T21:00:30.392Z,21.40
2022-10-15T21:03:00.441Z,21.40
2022-10-15T21:05:30.438Z,21.40
2022-10-15T21:08:01.804Z,21.40
2022-10-15T21:10:31.808Z,21.40
2022-10-15T21:13:01.902Z,21.40
2022-10-15T21:15:32.384Z,21.50
2022-10-15T21:18:02.490Z,21.40
2022-10-15T21:20:32.003Z,21.40
2022-10-15T21:23:01.888Z,21.30
2022-10-15T21:25:32.416Z,21.30
2022-10-15T21:28:02.288Z,21.30
2022-10-15T21:30:32.233Z,21.30
2022-10-15T21:33:02.304Z,21.30
2022-10-15T21:35:32.216Z,21.30
2022-10-15T21:38:02.151Z,21.30
2022-10-15T21:40:32.132Z,21.30
2022-10-15T21:43:02.087Z,21.20
2022-10-15T21:45:32.115Z,21.10
2022-10-15T21:48:02.181Z,21.10
2022-10-15T21:50:32.091Z,21.20
2022-10-15T21:53:05.488Z,21.10
2022-10-15T21:55:35.413Z,21.10
2022-10-15T21:58:05.344Z,21.10
2022-10-15T22:00:35.547Z,21.10
2022-10-15T22:03:04.911Z,21.20
2022-10-15T22:05:35.741Z,21.20
2022-10-15T22:08:05.826Z,21.20
2022-10-15T22:10:38.344Z,21.10
2022-10-15T22:13:08.284Z,21.10
2022-10-15T22:15:38.249Z,21.10
2022-10-15T22:18:08.186Z,21.00
2022-10-15T22:20:38.171Z,21.10
2022-10-15T22:23:11.395Z,21.10
2022-10-15T22:25:41.660Z,21.10
2022-10-15T22:28:11.602Z,21.10
2022-10-15T22:30:50.658Z,21.20
2022-10-15T22:33:20.669Z,21.20
2022-10-15T22:35:51.508Z,21.20
2022-10-15T22:38:21.378Z,21.30
2022-10-15T22:40:56.595Z,21.30
2022-10-15T22:43:27.123Z,21.30
2022-10-15T22:46:02.594Z,21.30
2022-10-15T22:48:36.100Z,21.30
2022-10-15T22:51:08.742Z,21.30
2022-10-15T22:53:38.833Z,21.30
2022-10-15T22:56:09.858Z,21.30
2022-10-15T22:58:39.952Z,21.30
2022-10-15T23:01:10.980Z,21.20
2022-10-15T23:03:42.154Z,21.30
2022-10-15T23:06:13.124Z,21.20
2022-10-15T23:08:44.111Z,21.20
2022-10-15T23:11:17.869Z,21.10
2022-10-15T23:13:49.080Z,21.10
2022-10-15T23:16:22.377Z,21.10
2022-10-15T23:18:59.218Z,21.10
2022-10-15T23:21:35.451Z,21.10
2022-10-15T23:24:06.403Z,21.10
2022-10-15T23:26:36.692Z,21.10
2022-10-15T23:29:08.301Z,21.10
2022-10-15T23:31:39.078Z,21.10
2022-10-15T23:34:09.503Z,21.10
2022-10-15T23:36:40.241Z,21.10
2022-10-15T23:39:10.644Z,21.10
2022-10-15T23:41:40.593Z,21.00
2022-10-15T23:44:11.035Z,21.10
2022-10-15T23:46:41.224Z,21.00
2022-10-15T23:49:12.036Z,21.10
2022-10-15T23:51:42.625Z,21.10
2022-10-15T23:54:17.901Z,21.00
2022-10-15T23:56:49.325Z,21.00
2022-10-15T23:59:20.125Z,21.00
